createdAt,value
2019-02-02T00:00:32.844Z,35.51
2019-02-02T00:01:32.834Z,35.51
2019-02-02T00:02:32.824Z,35.51
2019-02-02T00:03:32.807Z,35.51
2019-02-02T00:04:32.881Z,35.61
2019-02-02T00:05:32.789Z,35.61
2019-02-02T00:06:32.780Z,35.61
2019-02-02T00:07:32.770Z,35.51
2019-02-02T00:08:32.786Z,35.61
2019-02-02T00:09:32.741Z,35.51
2019-02-02T00:10:32.759Z,35.51
2019-02-02T00:11:32.725Z,35.51
2019-02-02T00:12:32.714Z,35.51
2019-02-02T00:13:32.722Z,35.51
2019-02-02T00:14:32.690Z,35.51
2019-02-02T00:15:32.672Z,35.61
2019-02-02T00:16:32.666Z,35.61
2019-02-02T00:17:32.652Z,35.51
2019-02-02T00:18:32.646Z,35.41
2019-02-02T00:19:32.675Z,35.41
2019-02-02T00:20:32.616Z,35.41
2019-02-02T00:21:32.605Z,35.41
2019-02-02T00:22:32.597Z,35.51
2019-02-02T00:23:32.587Z,35.51
2019-02-02T00:24:32.571Z,35.61
2019-02-02T00:25:32.595Z,35.61
2019-02-02T00:26:32.550Z,35.51
2019-02-02T00:27:41.045Z,35.41
2019-02-02T00:28:33.533Z,35.41
2019-02-02T00:29:32.519Z,35.41
2019-02-02T00:30:32.508Z,35.41
2019-02-02T00:31:32.782Z,35.41
2019-02-02T00:32:32.505Z,35.41
2019-02-02T00:33:32.475Z,35.41
2019-02-02T00:34:32.468Z,35.41
2019-02-02T00:35:32.458Z,35.41
2019-02-02T00:36:32.441Z,35.41
2019-02-02T00:37:32.469Z,35.41
2019-02-02T00:38:32.425Z,35.41
2019-02-02T00:39:32.412Z,35.41
2019-02-02T00:40:32.401Z,35.41
2019-02-02T00:41:32.392Z,35.41
2019-02-02T00:42:32.378Z,35.41
2019-02-02T00:43:32.387Z,35.41
2019-02-02T00:44:32.351Z,35.41
2019-02-02T00:45:32.342Z,35.41
2019-02-02T00:46:32.328Z,35.41
2019-02-02T00:47:32.321Z,35.41
2019-02-02T00:48:32.338Z,35.41
2019-02-02T00:49:32.296Z,35.31
2019-02-02T00:50:32.292Z,35.31
2019-02-02T00:51:32.275Z,35.41
2019-02-02T00:52:32.271Z,35.41
2019-02-02T00:53:32.251Z,35.41
2019-02-02T00:54:32.293Z,35.41
2019-02-02T00:55:32.231Z,35.31
2019-02-02T00:56:32.221Z,35.31
2019-02-02T00:57:32.208Z,35.31
2019-02-02T00:58:32.198Z,35.31
2019-02-02T00:59:32.184Z,35.31
2019-02-02T01:00:32.202Z,35.41
2019-02-02T01:01:32.262Z,35.31
2019-02-02T01:02:32.152Z,35.31
2019-02-02T01:03:32.142Z,35.31
2019-02-02T01:04:32.128Z,35.31
2019-02-02T01:05:32.154Z,35.41
2019-02-02T01:06:32.107Z,35.31
2019-02-02T01:07:32.100Z,35.21
2019-02-02T01:08:32.084Z,35.21
2019-02-02T01:09:32.080Z,35.21
2019-02-02T01:10:32.089Z,35.31
2019-02-02T01:11:32.054Z,35.31
2019-02-02T01:12:32.045Z,35.31
2019-02-02T01:13:32.032Z,35.31
2019-02-02T01:14:32.018Z,35.31
2019-02-02T01:15:32.009Z,35.21
2019-02-02T01:16:32.027Z,35.11
2019-02-02T01:17:31.991Z,35.21
2019-02-02T01:18:31.978Z,35.21
2019-02-02T01:19:31.973Z,35.21
2019-02-02T01:20:31.955Z,35.21
2019-02-02T01:21:31.975Z,35.11
2019-02-02T01:22:31.936Z,35.11
2019-02-02T01:23:31.925Z,35.11
2019-02-02T01:24:31.913Z,35.21
2019-02-02T01:25:31.934Z,35.21
2019-02-02T01:26:31.893Z,35.21
2019-02-02T01:27:31.883Z,35.11
2019-02-02T01:28:31.900Z,35.11
2019-02-02T01:29:31.862Z,35.11
2019-02-02T01:30:31.850Z,35.11
2019-02-02T01:31:31.866Z,35.11
2019-02-02T01:32:31.826Z,35.11
2019-02-02T01:33:31.817Z,35.11
2019-02-02T01:34:31.800Z,35.11
2019-02-02T01:35:31.791Z,35.01
2019-02-02T01:36:31.783Z,35.11
2019-02-02T01:37:31.791Z,35.11
2019-02-02T01:38:31.757Z,35.11
2019-02-02T01:39:31.775Z,35.11
2019-02-02T01:40:31.740Z,35.11
2019-02-02T01:41:31.722Z,35.11
2019-02-02T01:42:31.712Z,35.11
2019-02-02T01:43:31.702Z,35.11
2019-02-02T01:44:31.719Z,35.11
2019-02-02T01:45:31.685Z,35.11
2019-02-02T01:46:31.668Z,35.01
2019-02-02T01:47:31.665Z,35.01
2019-02-02T01:48:31.647Z,35.01
2019-02-02T01:49:31.637Z,35.11
2019-02-02T01:50:31.653Z,35.01
2019-02-02T01:51:31.613Z,35.01
2019-02-02T01:52:31.600Z,35.01
2019-02-02T01:53:31.619Z,35.01
2019-02-02T01:54:31.580Z,35.01
2019-02-02T01:55:31.567Z,35.01
2019-02-02T01:56:31.561Z,35.01
2019-02-02T01:57:31.575Z,35.01
2019-02-02T01:58:31.571Z,35.01
2019-02-02T01:59:31.533Z,34.91
2019-02-02T02:00:31.516Z,34.91
2019-02-02T02:01:31.507Z,35.01
2019-02-02T02:02:31.501Z,35.01
2019-02-02T02:03:31.482Z,35.01
2019-02-02T02:04:31.695Z,34.91
2019-02-02T02:05:31.468Z,34.91
2019-02-02T02:06:31.453Z,35.01
2019-02-02T02:07:31.439Z,34.91
2019-02-02T02:08:31.429Z,35.01
2019-02-02T02:09:31.423Z,35.01
2019-02-02T02:10:31.439Z,34.91
2019-02-02T02:11:31.401Z,34.91
2019-02-02T02:12:31.390Z,34.91
2019-02-02T02:13:31.375Z,34.91
2019-02-02T02:14:31.366Z,34.91
2019-02-02T02:15:31.356Z,35.01
2019-02-02T02:16:31.376Z,35.01
2019-02-02T02:17:31.335Z,34.91
2019-02-02T02:18:31.327Z,34.81
2019-02-02T02:19:31.318Z,34.81
2019-02-02T02:20:31.306Z,34.91
2019-02-02T02:21:31.333Z,34.91
2019-02-02T02:22:40.839Z,34.91
2019-02-02T02:23:32.268Z,34.91
2019-02-02T02:24:31.263Z,34.81
2019-02-02T02:25:31.245Z,34.81
2019-02-02T02:26:31.235Z,34.81
2019-02-02T02:27:31.252Z,34.81
2019-02-02T02:28:31.246Z,34.91
2019-02-02T02:29:31.210Z,34.91
2019-02-02T02:30:31.192Z,34.91
2019-02-02T02:31:31.185Z,34.81
2019-02-02T02:32:31.174Z,34.81
2019-02-02T02:33:31.159Z,34.81
2019-02-02T02:34:31.391Z,34.81
2019-02-02T02:35:31.139Z,34.81
2019-02-02T02:36:31.128Z,34.91
2019-02-02T02:37:31.114Z,34.81
2019-02-02T02:38:31.106Z,34.81
2019-02-02T02:39:31.095Z,34.81
2019-02-02T02:40:31.108Z,34.81
2019-02-02T02:41:31.079Z,34.81
2019-02-02T02:42:31.060Z,34.71
2019-02-02T02:43:31.051Z,34.71
2019-02-02T02:44:31.045Z,34.71
2019-02-02T02:45:31.067Z,34.81
2019-02-02T02:46:31.022Z,34.81
2019-02-02T02:47:31.010Z,34.81
2019-02-02T02:48:30.997Z,34.71
2019-02-02T02:49:30.982Z,34.71
2019-02-02T02:50:30.973Z,34.71
2019-02-02T02:51:30.994Z,34.71
2019-02-02T02:52:30.950Z,34.71
2019-02-02T02:53:30.942Z,34.71
2019-02-02T02:54:30.936Z,34.71
2019-02-02T02:55:30.925Z,34.71
2019-02-02T02:56:30.912Z,34.71
2019-02-02T02:57:30.942Z,34.71
2019-02-02T02:58:41.090Z,34.71
2019-02-02T02:59:31.879Z,34.61
2019-02-02T03:00:30.867Z,34.61
2019-02-02T03:01:30.859Z,34.61
2019-02-02T03:02:30.848Z,34.61
2019-02-02T03:03:30.866Z,34.61
2019-02-02T03:04:30.826Z,34.61
2019-02-02T03:05:30.814Z,34.61
2019-02-02T03:06:30.805Z,34.61
2019-02-02T03:07:30.794Z,34.61
2019-02-02T03:08:30.782Z,34.71
2019-02-02T03:09:30.792Z,34.71
2019-02-02T03:10:30.764Z,34.71
2019-02-02T03:11:30.757Z,34.61
2019-02-02T03:12:30.740Z,34.61
2019-02-02T03:13:30.728Z,34.61
2019-02-02T03:14:30.714Z,34.61
2019-02-02T03:15:30.727Z,34.61
2019-02-02T03:16:30.689Z,34.61
2019-02-02T03:17:30.678Z,34.61
2019-02-02T03:18:30.668Z,34.71
2019-02-02T03:19:30.659Z,34.61
2019-02-02T03:20:30.935Z,34.61
2019-02-02T03:21:30.637Z,34.61
2019-02-02T03:22:30.640Z,34.61
2019-02-02T03:23:30.616Z,34.51
2019-02-02T03:24:30.607Z,34.51
2019-02-02T03:25:30.594Z,34.61
2019-02-02T03:26:30.602Z,34.61
2019-02-02T03:27:30.568Z,34.61
2019-02-02T03:28:30.556Z,34.61
2019-02-02T03:29:30.547Z,34.51
2019-02-02T03:30:30.761Z,34.51
2019-02-02T03:31:30.720Z,34.63
2019-02-02T03:32:30.518Z,34.61
2019-02-02T03:33:30.506Z,34.61
2019-02-02T03:34:30.501Z,34.61
2019-02-02T03:35:30.482Z,34.63
2019-02-02T03:36:30.493Z,34.61
2019-02-02T03:37:30.458Z,34.61
2019-02-02T03:38:30.442Z,34.61
2019-02-02T03:39:30.436Z,34.51
2019-02-02T03:40:30.427Z,34.53
2019-02-02T03:41:30.420Z,34.61
2019-02-02T03:42:30.612Z,34.63
2019-02-02T03:43:30.388Z,34.61
2019-02-02T03:44:30.375Z,34.51
2019-02-02T03:45:30.367Z,34.51
2019-02-02T03:46:30.370Z,34.51
2019-02-02T03:47:30.361Z,34.53
2019-02-02T03:48:30.388Z,34.51
2019-02-02T03:49:30.327Z,34.61
2019-02-02T03:50:30.312Z,34.61
2019-02-02T03:51:30.304Z,34.63
2019-02-02T03:52:30.290Z,34.53
2019-02-02T03:53:30.278Z,34.42
2019-02-02T03:54:30.292Z,34.42
2019-02-02T03:55:30.256Z,34.53
2019-02-02T03:56:30.247Z,34.51
2019-02-02T03:57:30.253Z,34.53
2019-02-02T03:58:30.225Z,34.63
2019-02-02T03:59:30.213Z,34.53
2019-02-02T04:00:30.201Z,34.53
2019-02-02T04:01:30.365Z,34.53
2019-02-02T04:02:30.181Z,34.53
2019-02-02T04:03:30.202Z,34.53
2019-02-02T04:04:30.164Z,34.42
2019-02-02T04:05:30.148Z,34.42
2019-02-02T04:06:30.140Z,34.53
2019-02-02T04:07:30.139Z,34.53
2019-02-02T04:08:30.131Z,34.53
2019-02-02T04:09:30.098Z,34.53
2019-02-02T04:10:30.102Z,34.42
2019-02-02T04:11:30.081Z,34.42
2019-02-02T04:12:30.066Z,34.42
2019-02-02T04:13:30.062Z,34.53
2019-02-02T04:14:30.074Z,34.51
2019-02-02T04:15:30.033Z,34.53
2019-02-02T04:16:30.049Z,34.42
2019-02-02T04:17:30.290Z,34.42
2019-02-02T04:18:30.004Z,34.53
2019-02-02T04:19:29.991Z,34.53
2019-02-02T04:20:29.987Z,34.53
2019-02-02T04:21:29.971Z,34.42
2019-02-02T04:22:29.959Z,34.42
2019-02-02T04:23:29.967Z,34.53
2019-02-02T04:24:29.932Z,34.53
2019-02-02T04:25:29.924Z,34.42
2019-02-02T04:26:29.934Z,34.42
2019-02-02T04:27:29.902Z,34.42
2019-02-02T04:28:29.893Z,34.42
2019-02-02T04:29:29.881Z,34.42
2019-02-02T04:30:29.896Z,34.53
2019-02-02T04:31:29.858Z,34.53
2019-02-02T04:32:29.852Z,34.53
2019-02-02T04:33:29.837Z,34.53
2019-02-02T04:34:29.823Z,34.42
2019-02-02T04:35:29.815Z,34.42
2019-02-02T04:36:29.887Z,34.42
2019-02-02T04:37:29.797Z,34.42
2019-02-02T04:38:29.781Z,34.42
2019-02-02T04:39:29.775Z,34.42
2019-02-02T04:40:29.762Z,34.42
2019-02-02T04:41:29.764Z,34.42
2019-02-02T04:42:29.757Z,34.42
2019-02-02T04:43:29.726Z,34.42
2019-02-02T04:44:29.712Z,34.42
2019-02-02T04:45:29.700Z,34.42
2019-02-02T04:46:29.689Z,34.42
2019-02-02T04:47:29.680Z,34.42
2019-02-02T04:48:32.414Z,34.42
2019-02-02T04:49:29.658Z,34.42
2019-02-02T04:50:29.653Z,34.42
2019-02-02T04:51:29.633Z,34.42
2019-02-02T04:52:29.623Z,34.42
2019-02-02T04:53:29.614Z,34.42
2019-02-02T04:54:29.629Z,34.42
2019-02-02T04:55:29.597Z,34.53
2019-02-02T04:56:29.608Z,34.42
2019-02-02T04:57:29.575Z,34.42
2019-02-02T04:58:29.561Z,34.42
2019-02-02T04:59:29.756Z,34.42
2019-02-02T05:00:29.535Z,34.42
2019-02-02T05:01:29.530Z,34.42
2019-02-02T05:02:30.484Z,34.53
2019-02-02T05:03:29.505Z,34.53
2019-02-02T05:04:29.493Z,34.42
2019-02-02T05:05:29.480Z,34.42
2019-02-02T05:06:29.474Z,34.42
2019-02-02T05:07:29.458Z,34.42
2019-02-02T05:08:29.471Z,34.42
2019-02-02T05:09:29.665Z,34.42
2019-02-02T05:10:29.430Z,34.42
2019-02-02T05:11:29.421Z,34.42
2019-02-02T05:12:29.402Z,34.42
2019-02-02T05:13:29.395Z,34.42
2019-02-02T05:14:29.386Z,34.42
2019-02-02T05:15:29.397Z,34.42
2019-02-02T05:16:29.358Z,34.53
2019-02-02T05:17:29.351Z,34.53
2019-02-02T05:18:29.335Z,34.42
2019-02-02T05:19:29.321Z,34.42
2019-02-02T05:20:29.335Z,34.42
2019-02-02T05:21:29.303Z,34.42
2019-02-02T05:22:29.292Z,34.42
2019-02-02T05:23:29.282Z,34.42
2019-02-02T05:24:29.265Z,34.42
2019-02-02T05:25:29.345Z,34.42
2019-02-02T05:26:29.266Z,34.42
2019-02-02T05:27:29.236Z,34.42
2019-02-02T05:28:29.228Z,34.42
2019-02-02T05:29:40.689Z,34.42
2019-02-02T05:30:30.322Z,34.42
2019-02-02T05:31:29.193Z,34.42
2019-02-02T05:32:29.200Z,34.42
2019-02-02T05:33:29.167Z,34.42
2019-02-02T05:34:29.157Z,34.53
2019-02-02T05:35:29.144Z,34.53
2019-02-02T05:36:29.133Z,34.63
2019-02-02T05:37:29.131Z,34.53
2019-02-02T05:38:29.320Z,34.42
2019-02-02T05:39:29.102Z,34.42
2019-02-02T05:40:29.094Z,34.53
2019-02-02T05:41:29.078Z,34.53
2019-02-02T05:42:29.064Z,34.53
2019-02-02T05:43:29.052Z,34.53
2019-02-02T05:44:29.070Z,34.53
2019-02-02T05:45:29.033Z,34.53
2019-02-02T05:46:29.027Z,34.53
2019-02-02T05:47:29.007Z,34.53
2019-02-02T05:48:29.003Z,34.42
2019-02-02T05:49:29.017Z,34.42
2019-02-02T05:50:28.982Z,34.53
2019-02-02T05:51:28.965Z,34.53
2019-02-02T05:52:28.961Z,34.53
2019-02-02T05:53:29.233Z,34.53
2019-02-02T05:54:28.930Z,34.53
2019-02-02T05:55:28.923Z,34.53
2019-02-02T05:56:28.908Z,34.53
2019-02-02T05:57:28.902Z,34.53
2019-02-02T05:58:28.884Z,34.53
2019-02-02T05:59:29.161Z,34.53
2019-02-02T06:00:28.865Z,34.53
2019-02-02T06:01:30.086Z,34.53
2019-02-02T06:02:28.841Z,34.53
2019-02-02T06:03:28.832Z,34.53
2019-02-02T06:04:28.823Z,34.53
2019-02-02T06:05:28.829Z,34.53
2019-02-02T06:06:28.796Z,34.63
2019-02-02T06:07:28.788Z,34.63
2019-02-02T06:08:28.779Z,34.63
2019-02-02T06:09:28.770Z,34.63
2019-02-02T06:10:28.773Z,34.53
2019-02-02T06:11:28.750Z,34.53
2019-02-02T06:12:28.735Z,34.53
2019-02-02T06:13:28.725Z,34.53
2019-02-02T06:14:28.715Z,34.63
2019-02-02T06:15:29.193Z,34.63
2019-02-02T06:16:28.896Z,34.53
2019-02-02T06:17:28.679Z,34.53
2019-02-02T06:18:28.689Z,34.53
2019-02-02T06:19:28.654Z,34.63
2019-02-02T06:20:28.644Z,34.63
2019-02-02T06:21:28.631Z,34.63
2019-02-02T06:22:28.833Z,34.63
2019-02-02T06:23:28.609Z,34.63
2019-02-02T06:24:28.598Z,34.53
2019-02-02T06:25:28.586Z,34.53
2019-02-02T06:26:28.580Z,34.53
2019-02-02T06:27:28.567Z,34.63
2019-02-02T06:28:28.582Z,34.63
2019-02-02T06:29:28.542Z,34.53
2019-02-02T06:30:28.539Z,34.53
2019-02-02T06:31:28.523Z,34.53
2019-02-02T06:32:28.516Z,34.53
2019-02-02T06:33:28.504Z,34.53
2019-02-02T06:34:28.514Z,34.53
2019-02-02T06:35:28.481Z,34.53
2019-02-02T06:36:28.465Z,34.53
2019-02-02T06:37:28.465Z,34.63
2019-02-02T06:38:28.446Z,34.53
2019-02-02T06:39:28.432Z,34.53
2019-02-02T06:40:28.453Z,34.53
2019-02-02T06:41:28.417Z,34.53
2019-02-02T06:42:28.401Z,34.53
2019-02-02T06:43:30.294Z,34.63
2019-02-02T06:44:28.376Z,34.63
2019-02-02T06:45:28.373Z,34.53
2019-02-02T06:46:28.410Z,34.53
2019-02-02T06:47:28.456Z,34.53
2019-02-02T06:48:28.334Z,34.53
2019-02-02T06:49:28.326Z,34.53
2019-02-02T06:50:28.316Z,34.53
2019-02-02T06:51:28.303Z,34.53
2019-02-02T06:52:28.501Z,34.53
2019-02-02T06:53:28.281Z,34.53
2019-02-02T06:54:31.684Z,34.53
2019-02-02T06:55:29.257Z,34.63
2019-02-02T06:56:28.252Z,34.53
2019-02-02T06:57:28.237Z,34.53
2019-02-02T06:58:28.242Z,34.53
2019-02-02T06:59:28.208Z,34.53
2019-02-02T07:00:28.198Z,34.53
2019-02-02T07:01:28.197Z,34.63
2019-02-02T07:02:28.176Z,34.63
2019-02-02T07:03:28.167Z,34.63
2019-02-02T07:04:28.174Z,34.53
2019-02-02T07:05:28.162Z,34.53
2019-02-02T07:06:28.138Z,34.53
2019-02-02T07:07:28.127Z,34.53
2019-02-02T07:08:28.111Z,34.53
2019-02-02T07:09:28.098Z,34.53
2019-02-02T07:10:28.084Z,34.53
2019-02-02T07:11:28.099Z,34.53
2019-02-02T07:12:28.087Z,34.53
2019-02-02T07:13:28.056Z,34.53
2019-02-02T07:14:28.048Z,34.63
2019-02-02T07:15:28.042Z,34.53
2019-02-02T07:16:28.065Z,34.63
2019-02-02T07:17:28.013Z,34.53
2019-02-02T07:18:28.004Z,34.53
2019-02-02T07:19:29.278Z,34.53
2019-02-02T07:20:27.986Z,34.53
2019-02-02T07:21:27.965Z,34.53
2019-02-02T07:22:27.956Z,34.53
2019-02-02T07:23:27.944Z,34.53
2019-02-02T07:24:27.939Z,34.53
2019-02-02T07:25:27.947Z,34.53
2019-02-02T07:26:27.915Z,34.63
2019-02-02T07:27:27.905Z,34.63
2019-02-02T07:28:27.891Z,34.53
2019-02-02T07:29:27.881Z,34.53
2019-02-02T07:30:29.671Z,34.53
2019-02-02T07:31:27.856Z,34.53
2019-02-02T07:32:27.905Z,34.53
2019-02-02T07:33:27.832Z,34.53
2019-02-02T07:34:27.828Z,34.53
2019-02-02T07:35:27.814Z,34.53
2019-02-02T07:36:27.826Z,34.53
2019-02-02T07:37:27.786Z,34.53
2019-02-02T07:38:27.780Z,34.53
2019-02-02T07:39:27.764Z,34.53
2019-02-02T07:40:27.755Z,34.53
2019-02-02T07:41:27.745Z,34.53
2019-02-02T07:42:27.759Z,34.53
2019-02-02T07:43:27.720Z,34.53
2019-02-02T07:44:27.719Z,34.53
2019-02-02T07:45:27.701Z,34.53
2019-02-02T07:46:27.694Z,34.53
2019-02-02T07:47:27.694Z,34.53
2019-02-02T07:48:27.664Z,34.53
2019-02-02T07:49:27.655Z,34.53
2019-02-02T07:50:27.666Z,34.53
2019-02-02T07:51:27.637Z,34.53
2019-02-02T07:52:27.626Z,34.53
2019-02-02T07:53:27.631Z,34.53
2019-02-02T07:54:27.599Z,34.63
2019-02-02T07:55:27.591Z,34.53
2019-02-02T07:56:27.581Z,34.53
2019-02-02T07:57:27.566Z,34.42
2019-02-02T07:58:27.580Z,34.53
2019-02-02T07:59:27.550Z,34.53
2019-02-02T08:00:39.719Z,34.53
2019-02-02T08:01:28.523Z,34.53
2019-02-02T08:02:27.507Z,34.42
2019-02-02T08:03:27.501Z,34.42
2019-02-02T08:04:27.508Z,34.42
2019-02-02T08:05:27.479Z,34.53
2019-02-02T08:06:27.472Z,34.53
2019-02-02T08:07:27.452Z,34.53
2019-02-02T08:08:27.442Z,34.42
2019-02-02T08:09:27.452Z,34.42
2019-02-02T08:10:27.420Z,34.42
2019-02-02T08:11:27.408Z,34.42
2019-02-02T08:12:27.398Z,34.42
2019-02-02T08:13:27.392Z,34.42
2019-02-02T08:14:27.374Z,34.42
2019-02-02T08:15:27.382Z,34.42
2019-02-02T08:16:27.351Z,34.42
2019-02-02T08:17:27.343Z,34.42
2019-02-02T08:18:27.332Z,34.42
2019-02-02T08:19:27.342Z,34.42
2019-02-02T08:20:27.315Z,34.42
2019-02-02T08:21:27.299Z,34.42
2019-02-02T08:22:27.288Z,34.42
2019-02-02T08:23:27.279Z,34.42
2019-02-02T08:24:27.264Z,34.42
2019-02-02T08:25:27.278Z,34.42
2019-02-02T08:26:27.264Z,34.42
2019-02-02T08:27:27.235Z,34.42
2019-02-02T08:28:27.226Z,34.42
2019-02-02T08:29:27.212Z,34.42
2019-02-02T08:30:27.202Z,34.42
2019-02-02T08:31:27.216Z,34.53
2019-02-02T08:32:27.177Z,34.53
2019-02-02T08:33:27.179Z,34.42
2019-02-02T08:34:27.162Z,34.42
2019-02-02T08:35:27.179Z,34.42
2019-02-02T08:36:27.134Z,34.42
2019-02-02T08:37:27.129Z,34.42
2019-02-02T08:38:27.122Z,34.42
2019-02-02T08:39:29.268Z,34.53
2019-02-02T08:40:27.091Z,34.53
2019-02-02T08:41:27.103Z,34.53
2019-02-02T08:42:27.072Z,34.53
2019-02-02T08:43:27.056Z,34.42
2019-02-02T08:44:29.436Z,34.42
2019-02-02T08:45:27.326Z,34.53
2019-02-02T08:46:27.030Z,34.53
2019-02-02T08:47:27.020Z,34.53
2019-02-02T08:48:27.009Z,34.53
2019-02-02T08:49:26.998Z,34.53
2019-02-02T08:50:26.982Z,34.53
2019-02-02T08:51:26.990Z,34.53
2019-02-02T08:52:26.958Z,34.42
2019-02-02T08:53:27.019Z,34.42
2019-02-02T08:54:26.938Z,34.42
2019-02-02T08:55:27.029Z,34.53
2019-02-02T08:56:27.053Z,34.53
2019-02-02T08:57:27.038Z,34.53
2019-02-02T08:58:26.914Z,34.53
2019-02-02T08:59:26.883Z,34.53
2019-02-02T09:00:26.878Z,34.53
2019-02-02T09:01:26.857Z,34.53
2019-02-02T09:02:26.847Z,34.53
2019-02-02T09:03:26.852Z,34.53
2019-02-02T09:04:27.101Z,34.53
2019-02-02T09:05:26.817Z,34.53
2019-02-02T09:06:38.225Z,34.53
2019-02-02T09:07:27.790Z,34.42
2019-02-02T09:08:26.787Z,34.53
2019-02-02T09:09:26.778Z,34.53
2019-02-02T09:10:26.787Z,34.53
2019-02-02T09:11:26.752Z,34.53
2019-02-02T09:12:26.743Z,34.53
2019-02-02T09:13:26.756Z,34.42
2019-02-02T09:14:26.719Z,34.42
2019-02-02T09:15:26.722Z,34.42
2019-02-02T09:16:26.697Z,34.42
2019-02-02T09:17:26.683Z,34.42
2019-02-02T09:18:26.670Z,34.53
2019-02-02T09:19:26.683Z,34.42
2019-02-02T09:20:26.671Z,34.42
2019-02-02T09:21:26.645Z,34.42
2019-02-02T09:22:26.633Z,34.42
2019-02-02T09:23:26.614Z,34.42
2019-02-02T09:24:26.614Z,34.42
2019-02-02T09:25:26.642Z,34.42
2019-02-02T09:26:26.589Z,34.42
2019-02-02T09:27:26.574Z,34.42
2019-02-02T09:28:26.563Z,34.42
2019-02-02T09:29:26.550Z,34.42
2019-02-02T09:30:26.543Z,34.42
2019-02-02T09:31:26.555Z,34.42
2019-02-02T09:32:26.517Z,34.42
2019-02-02T09:33:26.505Z,34.42
2019-02-02T09:34:28.864Z,34.42
2019-02-02T09:35:26.488Z,34.42
2019-02-02T09:36:26.496Z,34.42
2019-02-02T09:37:26.465Z,34.42
2019-02-02T09:38:26.449Z,34.42
2019-02-02T09:39:26.441Z,34.42
2019-02-02T09:40:26.438Z,34.42
2019-02-02T09:41:26.635Z,34.42
2019-02-02T09:42:26.412Z,34.42
2019-02-02T09:43:26.404Z,34.42
2019-02-02T09:44:26.386Z,34.42
2019-02-02T09:45:26.447Z,34.42
2019-02-02T09:46:26.370Z,34.42
2019-02-02T09:47:26.373Z,34.42
2019-02-02T09:48:26.346Z,34.42
2019-02-02T09:49:26.360Z,34.33
2019-02-02T09:50:26.327Z,34.33
2019-02-02T09:51:26.314Z,34.33
2019-02-02T09:52:26.305Z,34.42
2019-02-02T09:53:26.293Z,34.42
2019-02-02T09:54:27.086Z,34.42
2019-02-02T09:55:26.267Z,34.33
2019-02-02T09:56:26.255Z,34.33
2019-02-02T09:57:27.775Z,34.33
2019-02-02T09:58:26.236Z,34.33
2019-02-02T09:59:26.224Z,34.33
2019-02-02T10:00:26.237Z,34.33
2019-02-02T10:01:27.844Z,34.33
2019-02-02T10:02:27.107Z,34.42
2019-02-02T10:03:26.180Z,34.33
2019-02-02T10:04:26.172Z,34.42
2019-02-02T10:05:26.181Z,34.42
2019-02-02T10:06:26.146Z,34.42
2019-02-02T10:07:26.139Z,34.33
2019-02-02T10:08:28.146Z,34.33
2019-02-02T10:09:26.117Z,34.33
2019-02-02T10:10:26.133Z,34.33
2019-02-02T10:11:26.096Z,34.33
2019-02-02T10:12:26.078Z,34.42
2019-02-02T10:13:26.076Z,34.42
2019-02-02T10:14:26.065Z,34.42
2019-02-02T10:15:26.054Z,34.42
2019-02-02T10:16:26.064Z,34.33
2019-02-02T10:17:26.028Z,34.33
2019-02-02T10:18:26.046Z,34.42
2019-02-02T10:19:26.005Z,34.42
2019-02-02T10:20:25.998Z,34.33
2019-02-02T10:21:25.985Z,34.33
2019-02-02T10:22:25.996Z,34.33
2019-02-02T10:23:25.958Z,34.33
2019-02-02T10:24:28.543Z,34.33
2019-02-02T10:25:25.945Z,34.42
2019-02-02T10:26:25.946Z,34.42
2019-02-02T10:27:25.921Z,34.42
2019-02-02T10:28:25.915Z,34.33
2019-02-02T10:29:25.899Z,34.33
2019-02-02T10:30:25.920Z,34.33
2019-02-02T10:31:25.874Z,34.33
2019-02-02T10:32:25.874Z,34.33
2019-02-02T10:33:25.857Z,34.42
2019-02-02T10:34:25.843Z,34.42
2019-02-02T10:35:25.834Z,34.33
2019-02-02T10:36:25.844Z,34.33
2019-02-02T10:37:25.815Z,34.33
2019-02-02T10:38:25.805Z,34.42
2019-02-02T10:39:25.791Z,34.42
2019-02-02T10:40:25.778Z,34.42
2019-02-02T10:41:25.773Z,34.33
2019-02-02T10:42:25.775Z,34.33
2019-02-02T10:43:25.746Z,34.33
2019-02-02T10:44:25.736Z,34.33
2019-02-02T10:45:25.746Z,34.33
2019-02-02T10:46:25.726Z,34.33
2019-02-02T10:47:25.702Z,34.33
2019-02-02T10:48:25.909Z,34.33
2019-02-02T10:49:25.685Z,34.33
2019-02-02T10:50:25.672Z,34.22
2019-02-02T10:51:25.665Z,34.22
2019-02-02T10:52:25.653Z,34.22
2019-02-02T10:53:25.644Z,34.22
2019-02-02T10:54:25.914Z,34.33
2019-02-02T10:55:25.657Z,34.33
2019-02-02T10:56:25.614Z,34.33
2019-02-02T10:57:25.602Z,34.22
2019-02-02T10:58:25.592Z,34.22
2019-02-02T10:59:25.585Z,34.22
2019-02-02T11:00:25.588Z,34.22
2019-02-02T11:01:25.555Z,34.22
2019-02-02T11:02:25.561Z,34.22
2019-02-02T11:03:25.579Z,34.22
2019-02-02T11:04:25.676Z,34.22
2019-02-02T11:05:25.537Z,34.22
2019-02-02T11:06:25.706Z,34.22
2019-02-02T11:07:25.827Z,34.22
2019-02-02T11:08:25.483Z,34.22
2019-02-02T11:09:25.598Z,34.22
2019-02-02T11:10:25.621Z,34.22
2019-02-02T11:11:25.534Z,34.22
2019-02-02T11:12:25.473Z,34.22
2019-02-02T11:13:25.472Z,34.22
2019-02-02T11:14:25.657Z,34.22
2019-02-02T11:15:25.469Z,34.22
2019-02-02T11:16:25.394Z,34.22
2019-02-02T11:17:25.539Z,34.22
2019-02-02T11:18:25.474Z,34.22
2019-02-02T11:19:25.430Z,34.22
2019-02-02T11:20:25.446Z,34.22
2019-02-02T11:21:25.439Z,34.22
2019-02-02T11:22:25.335Z,34.12
2019-02-02T11:23:25.341Z,34.22
2019-02-02T11:24:25.568Z,34.22
2019-02-02T11:25:25.346Z,34.22
2019-02-02T11:26:25.322Z,34.22
2019-02-02T11:27:25.348Z,34.12
2019-02-02T11:28:25.327Z,34.12
2019-02-02T11:29:25.252Z,34.12
2019-02-02T11:30:25.428Z,34.12
2019-02-02T11:31:25.234Z,34.12
2019-02-02T11:32:25.223Z,34.12
2019-02-02T11:33:25.213Z,34.12
2019-02-02T11:34:25.205Z,34.02
2019-02-02T11:35:25.196Z,34.02
2019-02-02T11:36:25.206Z,34.02
2019-02-02T11:37:25.168Z,34.02
2019-02-02T11:38:25.160Z,34.02
2019-02-02T11:39:25.269Z,34.02
2019-02-02T11:40:25.140Z,34.02
2019-02-02T11:41:25.120Z,34.02
2019-02-02T11:42:25.135Z,34.02
2019-02-02T11:43:25.109Z,34.02
2019-02-02T11:44:25.091Z,34.02
2019-02-02T11:45:25.077Z,34.02
2019-02-02T11:46:25.064Z,34.02
2019-02-02T11:47:25.081Z,34.02
2019-02-02T11:48:25.049Z,34.02
2019-02-02T11:49:25.032Z,34.02
2019-02-02T11:50:25.028Z,34.02
2019-02-02T11:51:25.009Z,34.12
2019-02-02T11:52:25.005Z,34.12
2019-02-02T11:53:25.015Z,34.02
2019-02-02T11:54:24.978Z,34.02
2019-02-02T11:55:24.967Z,34.02
2019-02-02T11:56:24.955Z,34.02
2019-02-02T11:57:24.944Z,34.02
2019-02-02T11:58:24.931Z,34.02
2019-02-02T11:59:24.941Z,34.12
2019-02-02T12:00:24.910Z,34.02
2019-02-02T12:01:24.926Z,34.02
2019-02-02T12:02:24.890Z,34.02
2019-02-02T12:03:25.021Z,34.02
2019-02-02T12:04:24.876Z,34.02
2019-02-02T12:05:24.861Z,34.02
2019-02-02T12:06:25.072Z,34.02
2019-02-02T12:07:24.835Z,34.02
2019-02-02T12:08:24.829Z,34.02
2019-02-02T12:09:24.812Z,34.02
2019-02-02T12:10:24.805Z,34.02
2019-02-02T12:11:24.797Z,34.12
2019-02-02T12:12:24.811Z,34.12
2019-02-02T12:13:24.783Z,34.22
2019-02-02T12:14:24.759Z,34.12
2019-02-02T12:15:24.745Z,34.12
2019-02-02T12:16:24.737Z,34.02
2019-02-02T12:17:24.728Z,34.02
2019-02-02T12:18:24.740Z,34.02
2019-02-02T12:19:24.701Z,34.12
2019-02-02T12:20:24.743Z,34.12
2019-02-02T12:21:24.679Z,34.12
2019-02-02T12:22:24.669Z,34.12
2019-02-02T12:23:24.664Z,34.02
2019-02-02T12:24:24.664Z,34.02
2019-02-02T12:25:24.638Z,34.02
2019-02-02T12:26:24.632Z,34.02
2019-02-02T12:27:24.619Z,34.02
2019-02-02T12:28:24.607Z,34.12
2019-02-02T12:29:24.655Z,34.02
2019-02-02T12:30:24.607Z,34.02
2019-02-02T12:31:24.567Z,34.02
2019-02-02T12:32:26.666Z,34.02
2019-02-02T12:33:25.966Z,34.02
2019-02-02T12:34:24.543Z,34.02
2019-02-02T12:35:24.528Z,34.02
2019-02-02T12:36:24.538Z,34.02
2019-02-02T12:37:24.507Z,34.02
2019-02-02T12:38:24.497Z,34.02
2019-02-02T12:39:24.488Z,33.92
2019-02-02T12:40:24.472Z,34.02
2019-02-02T12:41:24.467Z,34.02
2019-02-02T12:42:24.488Z,34.02
2019-02-02T12:43:24.471Z,34.02
2019-02-02T12:44:24.429Z,34.02
2019-02-02T12:45:24.426Z,34.02
2019-02-02T12:46:24.407Z,34.02
2019-02-02T12:47:24.401Z,33.92
2019-02-02T12:48:24.385Z,33.92
2019-02-02T12:49:24.395Z,33.92
2019-02-02T12:50:24.373Z,33.92
2019-02-02T12:51:24.359Z,33.92
2019-02-02T12:52:25.528Z,33.92